createdAt,value
2022-09-23T00:01:08.084Z,12.23
2022-09-23T00:03:36.555Z,12.39
2022-09-23T00:06:08.656Z,12.23
2022-09-23T00:08:35.288Z,12.46
2022-09-23T00:11:26.209Z,12.59
2022-09-23T00:13:56.194Z,12.23
2022-09-23T00:16:31.693Z,12.39
2022-09-23T00:18:58.352Z,12.64
2022-09-23T00:21:25.383Z,12.83
2022-09-23T00:23:52.174Z,12.72
2022-09-23T00:26:22.200Z,12.69
2022-09-23T00:28:49.865Z,13.11
2022-09-23T00:31:25.893Z,13.19
2022-09-23T00:33:54.615Z,12.81
2022-09-23T00:36:21.226Z,13.11
2022-09-23T00:38:47.847Z,12.52
2022-09-23T00:41:15.083Z,12.28
2022-09-23T00:43:56.733Z,12.64
2022-09-23T00:46:28.707Z,12.80
2022-09-23T00:49:03.069Z,12.98
2022-09-23T00:51:39.747Z,12.49
2022-09-23T00:54:07.017Z,12.08
2022-09-23T00:56:36.905Z,12.10
2022-09-23T00:59:06.629Z,11.70
2022-09-23T01:01:33.690Z,11.30
2022-09-23T01:04:00.747Z,11.69
2022-09-23T01:06:27.331Z,11.24
2022-09-23T01:08:53.911Z,11.02
2022-09-23T01:11:58.322Z,11.26
2022-09-23T01:14:41.526Z,11.41
2022-09-23T01:17:16.384Z,11.57
2022-09-23T01:19:57.965Z,12.01
2022-09-23T01:22:43.440Z,12.25
2022-09-23T01:25:36.359Z,12.09
2022-09-23T01:28:47.639Z,11.72
2022-09-23T01:31:28.386Z,11.75
2022-09-23T01:34:03.020Z,11.97
2022-09-23T01:36:46.550Z,12.45
2022-09-23T01:39:21.319Z,12.52
2022-09-23T01:42:12.725Z,12.98
2022-09-23T01:45:00.970Z,13.28
2022-09-23T01:47:37.318Z,12.53
2022-09-23T01:50:11.086Z,12.23
2022-09-23T01:52:45.270Z,11.31
2022-09-23T01:55:20.746Z,12.10
2022-09-23T01:57:58.771Z,12.95
2022-09-23T02:00:31.898Z,12.95
2022-09-23T02:03:13.248Z,12.62
2022-09-23T02:05:50.997Z,12.95
2022-09-23T02:08:26.133Z,13.05
2022-09-23T02:11:02.545Z,12.27
2022-09-23T02:13:39.423Z,12.00
2022-09-23T02:16:19.020Z,12.01
2022-09-23T02:19:15.471Z,11.96
2022-09-23T02:21:49.078Z,11.99
2022-09-23T02:24:22.979Z,12.20
2022-09-23T02:26:58.537Z,12.05
2022-09-23T02:29:50.885Z,12.12
2022-09-23T02:32:36.135Z,12.09
2022-09-23T02:35:23.858Z,11.56
2022-09-23T02:38:00.767Z,11.59
2022-09-23T02:40:46.527Z,11.81
2022-09-23T02:43:22.144Z,12.28
2022-09-23T02:45:52.114Z,11.81
2022-09-23T02:48:26.924Z,12.19
2022-09-23T02:50:54.167Z,11.81
2022-09-23T02:53:24.157Z,12.38
2022-09-23T02:55:50.799Z,12.38
2022-09-23T02:58:17.900Z,12.15
2022-09-23T03:01:05.631Z,11.65
2022-09-23T03:03:45.921Z,11.08
2022-09-23T03:06:41.421Z,10.91
2022-09-23T03:09:17.105Z,10.65
2022-09-23T03:11:52.955Z,10.32
2022-09-23T03:14:32.868Z,10.40
2022-09-23T03:16:59.397Z,10.75
2022-09-23T03:19:38.254Z,11.23
2022-09-23T03:22:13.904Z,11.83
2022-09-23T03:24:45.057Z,12.03
2022-09-23T03:27:21.774Z,11.62
2022-09-23T03:29:52.156Z,11.71
2022-09-23T03:32:23.573Z,11.67
2022-09-23T03:34:54.196Z,11.12
2022-09-23T03:37:40.190Z,11.50
2022-09-23T03:40:15.421Z,12.16
2022-09-23T03:42:42.812Z,11.60
2022-09-23T03:45:17.761Z,11.42
2022-09-23T03:47:44.970Z,11.76
2022-09-23T03:50:13.263Z,11.78
2022-09-23T03:52:40.673Z,11.61
2022-09-23T03:55:07.784Z,11.24
2022-09-23T03:57:35.013Z,11.02
2022-09-23T04:00:02.385Z,11.60
2022-09-23T04:02:29.088Z,11.09
2022-09-23T04:04:55.718Z,10.97
2022-09-23T04:07:22.307Z,11.13
2022-09-23T04:09:48.937Z,11.32
2022-09-23T04:12:16.748Z,11.36
2022-09-23T04:14:44.135Z,11.25
2022-09-23T04:17:11.443Z,11.04
2022-09-23T04:19:38.124Z,11.48
2022-09-23T04:22:05.608Z,11.79
2022-09-23T04:24:32.197Z,11.73
2022-09-23T04:26:58.822Z,11.22
2022-09-23T04:29:26.810Z,11.33
2022-09-23T04:31:53.788Z,11.43
2022-09-23T04:34:21.272Z,12.08
2022-09-23T04:36:49.534Z,11.98
2022-09-23T04:39:17.025Z,11.55
2022-09-23T04:41:44.826Z,11.26
2022-09-23T04:44:15.803Z,11.34
2022-09-23T04:46:43.550Z,11.72
2022-09-23T04:49:10.241Z,11.54
2022-09-23T04:51:36.861Z,11.49
2022-09-23T04:54:03.506Z,11.25
2022-09-23T04:56:31.100Z,10.94
2022-09-23T04:58:57.823Z,10.87
2022-09-23T05:01:27.404Z,10.77
2022-09-23T05:03:57.469Z,10.50
2022-09-23T05:06:24.656Z,10.54
2022-09-23T05:08:54.092Z,10.66
2022-09-23T05:11:21.378Z,10.64
2022-09-23T05:13:50.146Z,10.56
2022-09-23T05:16:18.042Z,10.64
2022-09-23T05:18:46.502Z,10.77
2022-09-23T05:21:16.461Z,10.87
2022-09-23T05:23:50.758Z,11.82
2022-09-23T05:26:17.567Z,11.70
2022-09-23T05:28:44.233Z,12.02
2022-09-23T05:31:19.426Z,11.29
2022-09-23T05:33:49.933Z,11.60
2022-09-23T05:36:16.534Z,11.80
2022-09-23T05:38:43.449Z,11.42
2022-09-23T05:41:13.236Z,11.86
2022-09-23T05:43:40.514Z,12.16
2022-09-23T05:46:14.178Z,11.57
2022-09-23T05:48:42.470Z,11.07
2022-09-23T05:51:12.925Z,11.30
2022-09-23T05:53:41.067Z,11.69
2022-09-23T05:56:07.969Z,12.08
2022-09-23T05:58:34.784Z,12.43
2022-09-23T06:01:01.413Z,12.81
2022-09-23T06:03:28.142Z,11.87
2022-09-23T06:05:55.724Z,12.02
2022-09-23T06:08:23.596Z,11.75
2022-09-23T06:10:54.357Z,11.76
2022-09-23T06:13:21.558Z,12.10
2022-09-23T06:15:48.394Z,12.68
2022-09-23T06:18:15.058Z,12.69
2022-09-23T06:20:41.658Z,12.14
2022-09-23T06:23:11.175Z,12.17
2022-09-23T06:25:38.389Z,11.90
2022-09-23T06:28:05.406Z,12.66
2022-09-23T06:30:32.037Z,13.33
2022-09-23T06:32:58.621Z,13.45
2022-09-23T06:35:27.826Z,13.70
2022-09-23T06:37:55.272Z,13.64
2022-09-23T06:40:22.699Z,13.76
2022-09-23T06:43:00.121Z,13.34
2022-09-23T06:45:28.005Z,14.04
2022-09-23T06:47:56.986Z,14.49
2022-09-23T06:50:25.554Z,14.73
2022-09-23T06:52:56.255Z,14.06
2022-09-23T06:55:24.453Z,14.34
2022-09-23T06:57:51.304Z,13.87
2022-09-23T07:00:19.691Z,14.72
2022-09-23T07:02:46.942Z,14.68
2022-09-23T07:05:13.847Z,14.43
2022-09-23T07:07:40.533Z,14.95
2022-09-23T07:10:07.689Z,15.25
2022-09-23T07:12:34.305Z,15.10
2022-09-23T07:15:01.378Z,15.29
2022-09-23T07:17:27.998Z,15.28
2022-09-23T07:19:54.608Z,15.48
2022-09-23T07:22:25.746Z,15.70
2022-09-23T07:24:54.221Z,15.95
2022-09-23T07:27:20.892Z,16.21
2022-09-23T07:29:49.431Z,15.89
2022-09-23T07:32:16.508Z,15.64
2022-09-23T07:34:43.140Z,15.83
2022-09-23T07:37:10.025Z,15.28
2022-09-23T07:39:36.630Z,15.88
2022-09-23T07:42:04.008Z,16.72
2022-09-23T07:44:31.197Z,17.11
2022-09-23T07:46:59.597Z,16.95
2022-09-23T07:49:27.643Z,17.54
2022-09-23T07:51:54.365Z,17.62
2022-09-23T07:54:21.173Z,18.44
2022-09-23T07:56:48.008Z,18.03
2022-09-23T07:59:18.329Z,18.68
2022-09-23T08:01:48.407Z,19.18
2022-09-23T08:04:18.976Z,18.94
2022-09-23T08:06:48.602Z,18.82
2022-09-23T08:09:17.240Z,18.92
2022-09-23T08:11:43.952Z,18.67
2022-09-23T08:14:13.745Z,17.97
2022-09-23T08:16:41.821Z,19.13
2022-09-23T08:19:08.870Z,18.91
2022-09-23T08:21:35.752Z,18.29
2022-09-23T08:24:02.572Z,18.59
2022-09-23T08:26:29.259Z,19.36
2022-09-23T08:28:55.892Z,19.38
2022-09-23T08:31:23.449Z,19.27
2022-09-23T08:33:58.231Z,18.65
2022-09-23T08:36:25.992Z,19.01
2022-09-23T08:38:52.824Z,19.06
2022-09-23T08:41:35.280Z,18.94
2022-09-23T08:44:25.176Z,17.84
2022-09-23T08:47:12.405Z,18.36
2022-09-23T08:49:55.503Z,17.90
2022-09-23T08:52:43.972Z,18.19
2022-09-23T08:55:13.920Z,18.06
2022-09-23T08:58:14.010Z,17.80
2022-09-23T09:00:43.093Z,17.70
2022-09-23T09:03:24.531Z,17.89
2022-09-23T09:05:54.589Z,17.66
2022-09-23T09:08:31.553Z,17.71
2022-09-23T09:10:58.598Z,17.69
2022-09-23T09:13:37.855Z,18.01
2022-09-23T09:16:59.002Z,17.55
2022-09-23T09:19:45.857Z,17.83
2022-09-23T09:22:21.268Z,17.53
2022-09-23T09:24:49.410Z,17.01
2022-09-23T09:27:16.365Z,16.86
2022-09-23T09:29:49.990Z,16.83
2022-09-23T09:32:45.610Z,17.54
2022-09-23T09:35:26.634Z,17.37
2022-09-23T09:37:53.557Z,17.26
2022-09-23T09:40:20.566Z,17.32
2022-09-23T09:42:50.120Z,17.07
2022-09-23T09:45:38.582Z,16.75
2022-09-23T09:48:17.851Z,16.91
2022-09-23T09:50:50.797Z,17.26
2022-09-23T09:53:20.115Z,17.42
2022-09-23T09:56:05.630Z,17.60
2022-09-23T09:58:37.881Z,17.06
2022-09-23T10:01:04.974Z,17.14
2022-09-23T10:03:39.060Z,17.23
2022-09-23T10:06:19.227Z,16.80
2022-09-23T10:09:17.317Z,17.43
2022-09-23T10:12:04.093Z,17.69
2022-09-23T10:14:30.926Z,17.43
2022-09-23T10:17:07.037Z,17.71
2022-09-23T10:19:38.173Z,17.77
2022-09-23T10:22:19.253Z,17.43
2022-09-23T10:24:53.545Z,17.69
2022-09-23T10:27:46.348Z,17.43
2022-09-23T10:30:20.758Z,17.56
2022-09-23T10:32:48.722Z,17.49
2022-09-23T10:35:18.921Z,17.39
2022-09-23T10:37:51.518Z,17.09
2022-09-23T10:40:30.367Z,17.15
2022-09-23T10:43:24.920Z,17.64
2022-09-23T10:45:59.832Z,17.82
2022-09-23T10:48:56.827Z,18.09
2022-09-23T10:51:48.293Z,17.85
2022-09-23T10:54:33.743Z,18.25
2022-09-23T10:57:11.110Z,18.03
2022-09-23T11:00:01.615Z,17.91
2022-09-23T11:02:56.267Z,17.56
2022-09-23T11:05:44.402Z,17.67
2022-09-23T11:08:33.028Z,18.13
2022-09-23T11:11:25.592Z,18.63
2022-09-23T11:14:37.110Z,18.39
2022-09-23T11:17:30.976Z,18.09
2022-09-23T11:20:32.095Z,18.44
2022-09-23T11:23:10.560Z,18.57
2022-09-23T11:25:52.184Z,18.23
2022-09-23T11:28:43.808Z,18.25
2022-09-23T11:31:22.587Z,18.42
2022-09-23T11:34:07.130Z,18.57
2022-09-23T11:36:39.519Z,18.17
2022-09-23T11:39:17.033Z,18.50
2022-09-23T11:41:45.927Z,18.61
2022-09-23T11:44:36.742Z,18.29
2022-09-23T11:47:06.005Z,18.04
2022-09-23T11:49:41.145Z,18.12
2022-09-23T11:52:16.509Z,18.46
2022-09-23T11:54:55.830Z,19.00
2022-09-23T11:57:47.544Z,18.73
2022-09-23T12:00:20.987Z,18.91
2022-09-23T12:03:05.309Z,18.77
2022-09-23T12:05:41.731Z,18.70
2022-09-23T12:08:24.298Z,18.85
2022-09-23T12:11:15.924Z,19.21
2022-09-23T12:14:12.075Z,18.62
2022-09-23T12:17:09.699Z,18.75
2022-09-23T12:20:09.063Z,18.81
2022-09-23T12:22:54.136Z,19.17
2022-09-23T12:25:46.863Z,19.23
2022-09-23T12:28:38.569Z,18.96
2022-09-23T12:31:15.090Z,19.05
2022-09-23T12:33:53.129Z,19.70
2022-09-23T12:36:31.903Z,19.72
2022-09-23T12:39:05.421Z,19.59
2022-09-23T12:41:39.782Z,20.12
2022-09-23T12:44:39.309Z,20.45
2022-09-23T12:47:14.763Z,19.83
2022-09-23T12:49:43.131Z,19.87
2022-09-23T12:52:18.519Z,19.99
2022-09-23T12:54:50.086Z,20.34
2022-09-23T12:57:34.405Z,20.60
2022-09-23T13:00:06.713Z,21.05
2022-09-23T13:02:38.856Z,21.08
2022-09-23T13:05:07.980Z,21.33
2022-09-23T13:07:34.693Z,21.17
2022-09-23T13:10:44.866Z,20.25
2022-09-23T13:13:49.847Z,20.50
2022-09-23T13:16:40.924Z,20.54
2022-09-23T13:19:27.460Z,20.89
2022-09-23T13:22:07.350Z,20.31
2022-09-23T13:24:45.726Z,20.70
2022-09-23T13:27:21.270Z,21.20
2022-09-23T13:30:04.910Z,21.22
2022-09-23T13:32:43.321Z,21.36
2022-09-23T13:35:13.025Z,21.31
2022-09-23T13:37:49.564Z,20.90
2022-09-23T13:40:24.558Z,20.94
2022-09-23T13:43:00.472Z,20.76
2022-09-23T13:45:31.454Z,20.71
2022-09-23T13:48:12.405Z,20.88
2022-09-23T13:50:43.136Z,21.16
2022-09-23T13:53:21.954Z,21.43
2022-09-23T13:56:03.019Z,21.30
2022-09-23T13:58:32.286Z,21.15
2022-09-23T14:00:59.891Z,21.49
2022-09-23T14:03:36.604Z,20.82
2022-09-23T14:06:15.336Z,20.77
2022-09-23T14:08:47.072Z,20.81
2022-09-23T14:11:28.336Z,20.47
2022-09-23T14:13:56.827Z,20.80
2022-09-23T14:16:27.104Z,20.53
2022-09-23T14:19:00.008Z,20.73
2022-09-23T14:21:38.366Z,20.80
2022-09-23T14:24:31.669Z,20.80
2022-09-23T14:27:15.684Z,21.09
2022-09-23T14:29:48.646Z,21.04
2022-09-23T14:32:24.821Z,20.62
2022-09-23T14:35:03.532Z,20.87
2022-09-23T14:37:30.129Z,20.66
2022-09-23T14:39:57.943Z,20.36
2022-09-23T14:42:24.687Z,20.35
2022-09-23T14:44:51.740Z,20.44
2022-09-23T14:47:18.360Z,20.83
2022-09-23T14:49:51.034Z,20.78
2022-09-23T14:52:17.818Z,20.94
2022-09-23T14:54:46.124Z,21.02
2022-09-23T14:57:31.371Z,21.10
2022-09-23T15:00:14.001Z,21.13
2022-09-23T15:02:44.863Z,20.94
2022-09-23T15:05:21.325Z,20.80
2022-09-23T15:07:55.463Z,20.50
2022-09-23T15:10:36.218Z,20.83
2022-09-23T15:13:17.456Z,20.75
2022-09-23T15:15:44.637Z,20.70
2022-09-23T15:18:25.997Z,20.43
2022-09-23T15:20:59.896Z,20.26
2022-09-23T15:23:56.309Z,20.67
2022-09-23T15:26:25.735Z,20.73
2022-09-23T15:28:53.217Z,20.63
2022-09-23T15:31:22.059Z,20.95
2022-09-23T15:33:50.581Z,21.17
2022-09-23T15:36:21.323Z,21.05
2022-09-23T15:38:48.464Z,21.04
2022-09-23T15:41:16.501Z,20.99
2022-09-23T15:43:43.816Z,21.15
2022-09-23T15:46:13.202Z,21.40
2022-09-23T15:48:47.081Z,21.09
2022-09-23T15:51:15.129Z,21.05
2022-09-23T15:53:41.728Z,21.67
2022-09-23T15:56:08.292Z,21.81
2022-09-23T15:58:34.895Z,21.72
2022-09-23T16:01:01.665Z,21.66
2022-09-23T16:03:28.535Z,21.86
2022-09-23T16:05:57.518Z,21.84
2022-09-23T16:08:24.216Z,21.80
2022-09-23T16:10:51.465Z,21.88
2022-09-23T16:13:18.376Z,21.29
2022-09-23T16:15:44.986Z,20.89
2022-09-23T16:18:12.729Z,20.54
2022-09-23T16:20:43.235Z,21.02
2022-09-23T16:23:20.670Z,20.90
2022-09-23T16:25:47.346Z,21.06
2022-09-23T16:28:13.932Z,21.16
2022-09-23T16:30:40.506Z,20.99
2022-09-23T16:33:07.103Z,20.84
2022-09-23T16:35:33.920Z,20.81
2022-09-23T16:38:00.530Z,20.92
2022-09-23T16:40:27.246Z,20.67
2022-09-23T16:42:54.149Z,20.07
2022-09-23T16:45:22.647Z,20.57
2022-09-23T16:47:51.389Z,20.36
2022-09-23T16:50:21.331Z,20.11
2022-09-23T16:52:48.600Z,20.20
2022-09-23T16:55:15.770Z,20.49
2022-09-23T16:57:42.371Z,20.50
2022-09-23T17:00:15.907Z,19.97
2022-09-23T17:02:42.546Z,20.25
2022-09-23T17:05:09.257Z,20.00
2022-09-23T17:07:36.175Z,19.87
2022-09-23T17:10:02.991Z,20.21
2022-09-23T17:12:32.562Z,19.77
2022-09-23T17:14:59.144Z,19.75
2022-09-23T17:17:25.913Z,19.86
2022-09-23T17:19:52.585Z,19.86
2022-09-23T17:22:19.222Z,19.71
2022-09-23T17:24:45.825Z,19.59
2022-09-23T17:27:12.425Z,19.69
2022-09-23T17:29:39.159Z,19.27
2022-09-23T17:32:05.769Z,19.28
2022-09-23T17:34:32.372Z,19.42
2022-09-23T17:36:59.051Z,19.74
2022-09-23T17:39:25.636Z,19.70
2022-09-23T17:41:52.531Z,19.11
2022-09-23T17:44:19.194Z,19.46
2022-09-23T17:46:45.783Z,19.35
2022-09-23T17:49:12.365Z,19.79
2022-09-23T17:51:38.973Z,19.30
2022-09-23T17:54:05.657Z,19.41
2022-09-23T17:56:32.259Z,18.86
2022-09-23T17:59:02.333Z,18.66
2022-09-23T18:01:32.391Z,18.99
2022-09-23T18:04:01.537Z,18.92
2022-09-23T18:06:30.440Z,18.87
2022-09-23T18:08:59.632Z,18.81
2022-09-23T18:11:28.609Z,18.77
2022-09-23T18:13:56.458Z,18.94
2022-09-23T18:16:27.276Z,18.49
2022-09-23T18:18:59.817Z,18.68
2022-09-23T18:21:30.146Z,19.01
2022-09-23T18:24:21.324Z,19.37
2022-09-23T18:26:44.620Z,18.86
2022-09-23T18:29:11.315Z,19.20
2022-09-23T18:31:39.122Z,19.42
2022-09-23T18:34:10.083Z,18.92
2022-09-23T18:36:39.136Z,19.41
2022-09-23T18:39:06.300Z,19.22
2022-09-23T18:41:33.994Z,18.74
2022-09-23T18:44:01.153Z,18.02
2022-09-23T18:46:29.608Z,18.19
2022-09-23T18:48:57.011Z,18.81
2022-09-23T18:51:25.492Z,18.80
2022-09-23T18:53:52.229Z,18.99
2022-09-23T18:56:19.686Z,18.82
2022-09-23T18:58:53.315Z,19.25
2022-09-23T19:01:21.521Z,19.26
2022-09-23T19:03:48.581Z,18.55
2022-09-23T19:06:21.143Z,18.46
2022-09-23T19:08:51.167Z,18.68
2022-09-23T19:11:17.917Z,19.01
2022-09-23T19:13:44.522Z,18.67
2022-09-23T19:16:14.251Z,19.23
2022-09-23T19:18:43.226Z,19.23
2022-09-23T19:21:11.297Z,19.44
2022-09-23T19:23:38.965Z,19.21
2022-09-23T19:26:09.681Z,19.03
2022-09-23T19:28:37.340Z,19.06
2022-09-23T19:31:15.260Z,18.74
2022-09-23T19:33:42.395Z,18.73
2022-09-23T19:36:09.842Z,18.75
2022-09-23T19:38:37.473Z,19.13
2022-09-23T19:41:05.972Z,18.34
2022-09-23T19:43:32.576Z,19.00
2022-09-23T19:46:01.163Z,19.16
2022-09-23T19:48:28.129Z,18.86
2022-09-23T19:50:54.813Z,18.94
2022-09-23T19:53:23.754Z,19.13
2022-09-23T19:55:54.006Z,18.89
2022-09-23T19:58:20.581Z,18.65
2022-09-23T20:00:47.202Z,18.89
2022-09-23T20:03:13.900Z,18.76
2022-09-23T20:05:40.479Z,19.10
2022-09-23T20:08:07.102Z,18.93
2022-09-23T20:10:33.781Z,18.33
2022-09-23T20:13:00.374Z,18.53
2022-09-23T20:15:27.018Z,18.79
2022-09-23T20:17:53.628Z,19.06
2022-09-23T20:20:20.218Z,18.93
2022-09-23T20:22:46.790Z,18.66
2022-09-23T20:25:13.504Z,19.04
2022-09-23T20:27:40.212Z,18.97
2022-09-23T20:30:07.623Z,18.63
2022-09-23T20:32:34.838Z,18.72
2022-09-23T20:35:01.461Z,18.85
2022-09-23T20:37:28.034Z,18.49
2022-09-23T20:39:54.609Z,18.62
2022-09-23T20:42:21.201Z,18.85
2022-09-23T20:44:47.966Z,18.78
2022-09-23T20:47:17.870Z,18.51
2022-09-23T20:49:45.908Z,18.41
2022-09-23T20:52:15.792Z,18.38
2022-09-23T20:54:42.752Z,18.29
2022-09-23T20:57:12.883Z,18.30
2022-09-23T20:59:39.663Z,18.50
2022-09-23T21:02:07.938Z,18.01
2022-09-23T21:04:34.626Z,18.44
2022-09-23T21:07:01.237Z,18.31
2022-09-23T21:09:29.315Z,18.75
2022-09-23T21:11:55.968Z,18.96
2022-09-23T21:14:23.669Z,18.65
2022-09-23T21:16:50.322Z,18.44
2022-09-23T21:19:17.823Z,18.50
2022-09-23T21:21:44.503Z,18.83
2022-09-23T21:24:43.787Z,18.43
2022-09-23T21:26:57.729Z,18.79
2022-09-23T21:29:24.332Z,18.44
2022-09-23T21:31:51.000Z,18.41
2022-09-23T21:34:17.606Z,18.03
2022-09-23T21:36:44.835Z,17.99
2022-09-23T21:39:12.098Z,17.99
2022-09-23T21:41:39.467Z,17.65
2022-09-23T21:44:06.660Z,17.79
2022-09-23T21:46:34.248Z,17.64
2022-09-23T21:49:00.901Z,17.58
2022-09-23T21:51:30.929Z,17.31
2022-09-23T21:53:58.502Z,17.66
2022-09-23T21:56:28.646Z,17.33
2022-09-23T21:58:57.262Z,17.46
2022-09-23T22:01:24.821Z,17.37
2022-09-23T22:03:54.506Z,17.31
2022-09-23T22:06:26.924Z,17.33
2022-09-23T22:08:55.966Z,17.26
2022-09-23T22:11:24.031Z,17.62
2022-09-23T22:13:50.599Z,17.37
2022-09-23T22:16:17.217Z,17.57
2022-09-23T22:18:43.841Z,17.75
2022-09-23T22:21:10.417Z,17.73
2022-09-23T22:23:37.004Z,18.05
2022-09-23T22:26:03.710Z,17.84
2022-09-23T22:28:32.676Z,17.98
2022-09-23T22:30:59.426Z,18.02
2022-09-23T22:33:26.071Z,18.40
2022-09-23T22:36:00.221Z,18.43
2022-09-23T22:38:26.799Z,18.53
2022-09-23T22:40:53.468Z,18.34
2022-09-23T22:43:20.109Z,17.93
2022-09-23T22:45:50.287Z,18.11
2022-09-23T22:48:17.046Z,17.78
2022-09-23T22:50:43.703Z,17.76
2022-09-23T22:53:10.281Z,17.91
2022-09-23T22:55:36.861Z,18.10
2022-09-23T22:58:21.259Z,18.34
2022-09-23T23:00:50.079Z,17.86
2022-09-23T23:03:16.744Z,17.54
2022-09-23T23:05:43.338Z,17.70
2022-09-23T23:08:09.916Z,17.44
2022-09-23T23:10:36.503Z,17.66
2022-09-23T23:13:03.094Z,17.30
2022-09-23T23:15:29.670Z,17.52
2022-09-23T23:17:56.281Z,17.38
2022-09-23T23:20:22.882Z,17.26
2022-09-23T23:22:49.457Z,17.31
2022-09-23T23:25:16.074Z,17.36
2022-09-23T23:27:43.847Z,17.26
2022-09-23T23:30:10.944Z,17.45
2022-09-23T23:32:37.540Z,17.53
2022-09-23T23:35:04.696Z,17.61
2022-09-23T23:37:31.370Z,17.95
2022-09-23T23:39:57.940Z,17.96
2022-09-23T23:42:24.527Z,17.89
2022-09-23T23:44:51.098Z,18.16
2022-09-23T23:47:17.671Z,18.13
2022-09-23T23:49:44.264Z,17.78
2022-09-23T23:52:10.822Z,17.62
2022-09-23T23:54:37.396Z,17.96
2022-09-23T23:57:04.291Z,17.86
2022-09-23T23:59:30.890Z,18.07
